Time;durP1;ratioP1;P1;durP2;ratioP2;P2;SDS_P1;SDS_P2;PMS_P1;PMS_P2;Temp;Humidity;BMP_temperature;BMP_pressure;BME280_temperature;BME280_humidity;BME280_pressure;Samples;Min_cycle;Max_cycle;Signal;HPM_P1;HPM_P2
2021/11/20 00:00:35;;;;;;;18.10;15.45;;;;;;;;;;5051385;28;20032;-59
2021/11/20 00:03:01;;;;;;;20.58;15.10;;;;;;;;;;5046275;28;20022;-59
2021/11/20 00:05:30;;;;;;;29.65;15.70;;;;;;;;;;5031896;28;20434;-59
2021/11/20 00:07:56;;;;;;;21.15;14.95;;;;;;;;;;5031240;28;20026;-59
2021/11/20 00:10:24;;;;;;;18.55;13.15;;;;;;;;;;5031688;28;20052;-59
2021/11/20 00:12:50;;;;;;;22.88;14.63;;;;;;;;;;5031779;28;20029;-59
2021/11/20 00:15:18;;;;;;;20.55;15.60;;;;;;;;;;5031684;28;20088;-59
2021/11/20 00:17:45;;;;;;;25.73;16.55;;;;;;;;;;5031080;28;20025;-59
2021/11/20 00:20:14;;;;;;;20.55;14.90;;;;;;;;;;5031527;28;20082;-59
2021/11/20 00:22:42;;;;;;;25.27;15.15;;;;;;;;;;5031615;28;20035;-59
2021/11/20 00:25:21;;;;;;;25.00;16.08;;;;;;;;;;5031602;28;20375;-59
2021/11/20 00:27:47;;;;;;;21.50;15.50;;;;;;;;;;5030919;28;20113;-59
2021/11/20 00:30:17;;;;;;;20.23;13.60;;;;;;;;;;5031222;28;20036;-59
2021/11/20 00:33:06;;;;;;;28.38;16.63;;;;;;;;;;5032042;28;20116;-59
2021/11/20 00:35:37;;;;;;;25.10;15.57;;;;;;;;;;5031998;28;20049;-59
2021/11/20 00:38:02;;;;;;;;;;;;;;;;;;5034687;28;20033;-59
2021/11/20 00:40:32;;;;;;;24.15;15.38;;;;;;;;;;5034604;28;19916;-59
2021/11/20 00:42:58;;;;;;;23.27;14.93;;;;;;;;;;5034846;28;20029;-59
2021/11/20 00:45:25;;;;;;;20.52;15.27;;;;;;;;;;5034987;28;20200;-59
2021/11/20 00:47:51;;;;;;;21.38;15.93;;;;;;;;;;5033973;28;20021;-59
2021/11/20 00:50:18;;;;;;;27.90;16.90;;;;;;;;;;5034668;28;20102;-59
2021/11/20 00:52:44;;;;;;;24.15;16.15;;;;;;;;;;5034811;28;20034;-59
2021/11/20 00:55:13;;;;;;;22.33;15.60;;;;;;;;;;5034436;28;20387;-59
2021/11/20 00:57:39;;;;;;;27.00;17.10;;;;;;;;;;5034682;28;20068;-59
2021/11/20 01:00:07;;;;;;;21.50;16.63;;;;;;;;;;5033917;28;20378;-59
2021/11/20 01:02:33;;;;;;;25.05;17.05;;;;;;;;;;5035843;28;20034;-59
2021/11/20 01:04:59;;;;;;;25.98;15.85;;;;;;;;;;5054270;28;20029;-59
2021/11/20 01:07:25;;;;;;;21.23;16.70;;;;;;;;;;5054293;28;20025;-59
2021/11/20 01:09:51;;;;;;;27.42;17.00;;;;;;;;;;5053345;28;20075;-59
2021/11/20 01:12:21;;;;;;;25.10;15.40;;;;;;;;;;5054331;28;20075;-59
2021/11/20 01:14:48;;;;;;;29.88;16.30;;;;;;;;;;5054150;28;20394;-59
2021/11/20 01:17:15;;;;;;;20.30;14.10;;;;;;;;;;5053976;28;20043;-59
2021/11/20 01:19:41;;;;;;;24.80;16.23;;;;;;;;;;5053360;28;20380;-59
2021/11/20 01:22:09;;;;;;;26.17;16.35;;;;;;;;;;5053913;28;20067;-59
2021/11/20 01:24:35;;;;;;;19.15;14.55;;;;;;;;;;5054222;28;20447;-59
2021/11/20 01:27:01;;;;;;;16.48;14.10;;;;;;;;;;5053953;28;20087;-59
2021/11/20 01:29:27;;;;;;;23.33;13.68;;;;;;;;;;5053299;28;20025;-59
2021/11/20 01:31:54;;;;;;;22.90;16.83;;;;;;;;;;5053948;28;20082;-59
2021/11/20 01:34:22;;;;;;;17.63;12.98;;;;;;;;;;5053483;28;20028;-59
2021/11/20 01:36:49;;;;;;;19.13;14.43;;;;;;;;;;5053418;28;20462;-59
2021/11/20 01:39:16;;;;;;;17.38;13.23;;;;;;;;;;5052986;28;20467;-59
2021/11/20 01:41:44;;;;;;;15.38;12.27;;;;;;;;;;5053622;28;20047;-59
2021/11/20 01:44:15;;;;;;;25.98;15.15;;;;;;;;;;5052735;28;20494;-59
2021/11/20 01:46:41;;;;;;;;;;;;;;;;;;5053719;28;20156;-59
2021/11/20 01:49:10;;;;;;;20.42;13.63;;;;;;;;;;5052557;28;19946;-59
2021/11/20 01:51:41;;;;;;;21.83;13.90;;;;;;;;;;5053551;28;20179;-59
2021/11/20 01:54:18;;;;;;;19.33;14.65;;;;;;;;;;5053484;28;20040;-59
2021/11/20 01:56:54;;;;;;;19.27;13.73;;;;;;;;;;5053257;28;20028;-59
2021/11/20 01:59:20;;;;;;;19.70;14.48;;;;;;;;;;5052729;28;20032;-59
2021/11/20 02:01:50;;;;;;;22.83;12.02;;;;;;;;;;5052683;28;20029;-59
2021/11/20 02:04:20;;;;;;;21.33;13.77;;;;;;;;;;5053235;28;20109;-59
2021/11/20 02:07:07;;;;;;;19.75;13.48;;;;;;;;;;5053312;28;20024;-59
2021/11/20 02:09:39;;;;;;;17.25;13.38;;;;;;;;;;5052418;28;20364;-59
2021/11/20 02:12:08;;;;;;;17.83;14.13;;;;;;;;;;5052836;28;20020;-59
2021/11/20 02:14:34;;;;;;;16.63;13.38;;;;;;;;;;5053123;28;20049;-59
2021/11/20 02:17:07;;;;;;;14.88;13.27;;;;;;;;;;5053170;28;20043;-59
2021/11/20 02:19:35;;;;;;;18.17;13.50;;;;;;;;;;5052402;28;20025;-59
2021/11/20 02:22:30;;;;;;;19.92;14.07;;;;;;;;;;5052711;28;20372;-59
2021/11/20 02:24:57;;;;;;;15.65;11.90;;;;;;;;;;5043965;28;20068;-59
2021/11/20 02:27:23;;;;;;;17.88;13.35;;;;;;;;;;5052434;28;20497;-59
2021/11/20 02:29:49;;;;;;;17.48;12.20;;;;;;;;;;5051997;28;20021;-59
2021/11/20 02:32:17;;;;;;;18.65;13.60;;;;;;;;;;5052606;28;20537;-59
2021/11/20 02:34:43;;;;;;;18.60;14.75;;;;;;;;;;5052435;28;20063;-59
2021/11/20 02:37:10;;;;;;;20.00;14.27;;;;;;;;;;5052251;28;20056;-59
2021/11/20 02:39:37;;;;;;;19.23;13.48;;;;;;;;;;5052150;28;20055;-59
2021/11/20 02:42:04;;;;;;;23.63;15.93;;;;;;;;;;5052674;28;20045;-59
2021/11/20 02:44:30;;;;;;;15.73;12.80;;;;;;;;;;5052574;28;20482;-59
2021/11/20 02:46:59;;;;;;;20.85;14.70;;;;;;;;;;5052323;28;20029;-59
2021/11/20 02:49:25;;;;;;;22.00;14.30;;;;;;;;;;5051591;28;20029;-59
2021/11/20 02:51:53;;;;;;;21.00;13.65;;;;;;;;;;5052133;28;20036;-59
2021/11/20 02:54:23;;;;;;;16.15;12.90;;;;;;;;;;5052398;28;20028;-59
2021/11/20 02:56:54;;;;;;;18.27;13.27;;;;;;;;;;5052181;28;20036;-59
2021/11/20 02:59:20;;;;;;;18.55;13.85;;;;;;;;;;5051557;28;20075;-59
2021/11/20 03:01:47;;;;;;;19.83;13.57;;;;;;;;;;5052228;28;20033;-59
2021/11/20 03:04:15;;;;;;;16.52;13.13;;;;;;;;;;5051792;28;20463;-59
2021/11/20 03:06:41;;;;;;;23.20;14.60;;;;;;;;;;5052025;28;20024;-59
2021/11/20 03:09:08;;;;;;;18.00;12.98;;;;;;;;;;5051550;28;20029;-59
2021/11/20 03:11:34;;;;;;;18.70;14.20;;;;;;;;;;5052159;28;20031;-59
2021/11/20 03:14:04;;;;;;;19.45;12.07;;;;;;;;;;5052140;28;20025;-59
2021/11/20 03:16:30;;;;;;;23.38;13.73;;;;;;;;;;5052112;28;20037;-59
2021/11/20 03:18:56;;;;;;;21.13;12.85;;;;;;;;;;5051176;28;20087;-59
2021/11/20 03:21:22;;;;;;;19.98;13.25;;;;;;;;;;5051804;28;20051;-59
2021/11/20 03:24:00;;;;;;;18.02;12.57;;;;;;;;;;5052167;28;20405;-59
2021/11/20 03:26:26;;;;;;;15.63;12.32;;;;;;;;;;5051932;28;20025;-59
2021/11/20 03:28:52;;;;;;;18.52;13.70;;;;;;;;;;5051302;28;20051;-59
2021/11/20 03:31:19;;;;;;;21.95;12.82;;;;;;;;;;5051661;28;20033;-59
2021/11/20 03:33:45;;;;;;;20.27;14.35;;;;;;;;;;5051953;28;20444;-59
2021/11/20 03:36:11;;;;;;;17.90;12.00;;;;;;;;;;5051963;28;20056;-59
2021/11/20 03:38:37;;;;;;;19.45;13.40;;;;;;;;;;5051090;28;20491;-59
2021/11/20 03:41:03;;;;;;;19.98;13.73;;;;;;;;;;5051731;28;20104;-59
2021/11/20 03:43:29;;;;;;;19.40;13.45;;;;;;;;;;5051806;28;20047;-59
2021/11/20 03:45:55;;;;;;;19.75;13.50;;;;;;;;;;5051653;28;20029;-59
2021/11/20 03:48:21;;;;;;;15.63;12.02;;;;;;;;;;5051216;28;20025;-59
2021/11/20 03:50:48;;;;;;;18.17;12.88;;;;;;;;;;5051801;28;20036;-60
2021/11/20 03:53:14;;;;;;;19.80;13.45;;;;;;;;;;5052284;28;20032;-59
2021/11/20 03:55:42;;;;;;;20.23;14.95;;;;;;;;;;5052276;28;20041;-59
2021/11/20 03:58:08;;;;;;;18.05;13.60;;;;;;;;;;5050967;28;20025;-59
2021/11/20 04:00:37;;;;;;;18.23;13.18;;;;;;;;;;5051393;28;20087;-59
2021/11/20 04:03:03;;;;;;;18.55;13.18;;;;;;;;;;5046158;28;20026;-59
2021/11/20 04:05:33;;;;;;;14.20;12.27;;;;;;;;;;5031601;28;20471;-59
2021/11/20 04:07:59;;;;;;;20.65;13.68;;;;;;;;;;5031934;28;20022;-59
2021/11/20 04:10:25;;;;;;;16.35;12.40;;;;;;;;;;5035515;28;20112;-59
2021/11/20 04:12:51;;;;;;;19.35;12.93;;;;;;;;;;5035441;28;20104;-59
2021/11/20 04:15:23;;;;;;;20.23;12.65;;;;;;;;;;5035217;28;20034;-59
2021/11/20 04:17:49;;;;;;;14.10;10.43;;;;;;;;;;5034756;28;20100;-59
2021/11/20 04:20:17;;;;;;;15.00;11.30;;;;;;;;;;5035115;28;20519;-59
2021/11/20 04:22:44;;;;;;;18.42;11.05;;;;;;;;;;5035059;28;20125;-59
2021/11/20 04:25:10;;;;;;;17.23;12.27;;;;;;;;;;5035225;28;20379;-59
2021/11/20 04:27:36;;;;;;;14.35;10.75;;;;;;;;;;5034874;28;20375;-59
2021/11/20 04:30:04;;;;;;;17.85;12.18;;;;;;;;;;5034407;28;20055;-59
2021/11/20 04:32:30;;;;;;;14.35;11.32;;;;;;;;;;5029888;28;20056;-59
2021/11/20 04:34:56;;;;;;;17.25;11.50;;;;;;;;;;5035221;28;20072;-59
2021/11/20 04:37:22;;;;;;;17.40;12.05;;;;;;;;;;5034685;28;20392;-59
2021/11/20 04:39:47;;;;;;;16.50;11.10;;;;;;;;;;5034207;28;20025;-59
2021/11/20 04:42:13;;;;;;;13.82;10.73;;;;;;;;;;5066715;28;20521;-59
2021/11/20 04:44:39;;;;;;;15.18;9.73;;;;;;;;;;5035135;28;20352;-59
2021/11/20 04:47:05;;;;;;;14.63;10.23;;;;;;;;;;5032582;28;20029;-59
2021/11/20 04:49:31;;;;;;;14.18;10.95;;;;;;;;;;5053426;28;20025;-59
2021/11/20 04:51:57;;;;;;;16.40;11.10;;;;;;;;;;5054454;28;20033;-59
2021/11/20 04:54:23;;;;;;;12.90;10.05;;;;;;;;;;5054554;28;20071;-59
2021/11/20 04:56:49;;;;;;;21.25;11.73;;;;;;;;;;5054396;28;20033;-59
2021/11/20 04:59:15;;;;;;;14.40;10.35;;;;;;;;;;5053967;28;20036;-59
2021/11/20 05:01:41;;;;;;;16.23;11.68;;;;;;;;;;5054230;28;20091;-59
2021/11/20 05:04:07;;;;;;;17.25;10.52;;;;;;;;;;5053889;28;20530;-59
2021/11/20 05:06:33;;;;;;;13.13;10.85;;;;;;;;;;5054414;28;20111;-59
2021/11/20 05:09:00;;;;;;;14.73;10.55;;;;;;;;;;5053615;28;20545;-59
2021/11/20 05:11:29;;;;;;;18.30;11.35;;;;;;;;;;5053782;28;20028;-59
2021/11/20 05:13:56;;;;;;;14.80;11.33;;;;;;;;;;5054358;28;20301;-59
2021/11/20 05:16:22;;;;;;;16.13;10.82;;;;;;;;;;5054160;28;20456;-59
2021/11/20 05:18:48;;;;;;;16.40;9.98;;;;;;;;;;5053016;28;20267;-59
2021/11/20 05:21:15;;;;;;;15.60;11.05;;;;;;;;;;5053789;28;20091;-59
2021/11/20 05:23:41;;;;;;;13.07;10.45;;;;;;;;;;5053941;28;20033;-59
2021/11/20 05:26:08;;;;;;;14.82;10.57;;;;;;;;;;5053896;28;20028;-59
2021/11/20 05:28:34;;;;;;;14.73;10.40;;;;;;;;;;5053462;28;20028;-59
2021/11/20 05:31:00;;;;;;;18.45;11.93;;;;;;;;;;5054162;28;20028;-59
2021/11/20 05:33:26;;;;;;;14.93;10.90;;;;;;;;;;5053716;28;20032;-59
2021/11/20 05:35:52;;;;;;;16.42;10.63;;;;;;;;;;5053462;28;20048;-59
2021/11/20 05:38:19;;;;;;;15.07;10.82;;;;;;;;;;5052768;28;20426;-59
2021/11/20 05:40:45;;;;;;;15.00;10.23;;;;;;;;;;5053560;28;20123;-59
2021/11/20 05:43:13;;;;;;;15.55;11.13;;;;;;;;;;5053812;28;20032;-59
2021/11/20 05:45:40;;;;;;;13.30;10.43;;;;;;;;;;5053757;28;20632;-59
2021/11/20 05:48:06;;;;;;;18.40;11.30;;;;;;;;;;5052672;28;20433;-59
2021/11/20 05:50:33;;;;;;;15.98;10.90;;;;;;;;;;5053069;28;20086;-59
2021/11/20 05:52:59;;;;;;;17.05;11.23;;;;;;;;;;5053285;28;20025;-59
2021/11/20 05:55:27;;;;;;;13.18;9.23;;;;;;;;;;5053917;28;20055;-59
2021/11/20 05:57:53;;;;;;;14.10;10.48;;;;;;;;;;5052901;28;20104;-59
2021/11/20 06:00:21;;;;;;;15.77;11.25;;;;;;;;;;5053271;28;20036;-59
2021/11/20 06:02:48;;;;;;;17.85;11.70;;;;;;;;;;5053308;28;20025;-59
2021/11/20 06:05:14;;;;;;;15.95;11.38;;;;;;;;;;5052858;28;20174;-59
2021/11/20 06:07:40;;;;;;;15.48;9.55;;;;;;;;;;5053013;28;20375;-59
2021/11/20 06:10:07;;;;;;;18.00;11.00;;;;;;;;;;5052573;28;20025;-59
2021/11/20 06:12:33;;;;;;;16.77;10.85;;;;;;;;;;5053343;28;20040;-59
2021/11/20 06:14:59;;;;;;;15.30;10.32;;;;;;;;;;5053171;28;20029;-59
2021/11/20 06:17:25;;;;;;;14.57;11.07;;;;;;;;;;5053032;28;20112;-59
2021/11/20 06:19:51;;;;;;;13.63;10.52;;;;;;;;;;5051753;28;20064;-59
2021/11/20 06:22:20;;;;;;;13.45;9.32;;;;;;;;;;5052712;28;20036;-59
2021/11/20 06:24:46;;;;;;;16.50;10.07;;;;;;;;;;5052810;28;20442;-59
2021/11/20 06:27:12;;;;;;;14.90;9.48;;;;;;;;;;5052944;28;20085;-59
2021/11/20 06:29:38;;;;;;;13.68;10.15;;;;;;;;;;5050818;28;20048;-59
2021/11/20 06:32:04;;;;;;;13.48;10.77;;;;;;;;;;5050137;28;20035;-59
2021/11/20 06:34:30;;;;;;;17.15;11.50;;;;;;;;;;5050787;28;20036;-59
2021/11/20 06:36:56;;;;;;;13.73;9.73;;;;;;;;;;5051337;28;20443;-59
2021/11/20 06:39:22;;;;;;;13.05;9.52;;;;;;;;;;5050997;28;20033;-59
2021/11/20 06:41:48;;;;;;;15.13;10.02;;;;;;;;;;5051993;28;20029;-59
2021/11/20 06:44:14;;;;;;;15.73;10.45;;;;;;;;;;5052511;28;20040;-59
2021/11/20 06:46:41;;;;;;;12.85;9.40;;;;;;;;;;5052308;28;20036;-59
2021/11/20 06:49:07;;;;;;;15.02;10.55;;;;;;;;;;5051314;28;20029;-59
2021/11/20 06:51:33;;;;;;;11.60;10.07;;;;;;;;;;5050558;28;20497;-59
2021/11/20 06:53:59;;;;;;;13.07;10.50;;;;;;;;;;5050414;28;20171;-59
2021/11/20 06:56:32;;;;;;;11.65;9.73;;;;;;;;;;5050530;28;20107;-59
2021/11/20 07:01:43;;;;;;;13.88;9.50;;;;;;;;;;5049988;28;20047;-59
2021/11/20 07:04:11;;;;;;;18.15;11.82;;;;;;;;;;5050251;28;20049;-54
2021/11/20 07:06:57;;;;;;;15.75;10.23;;;;;;;;;;5052285;28;20078;-54
2021/11/20 07:09:24;;;;;;;14.23;11.10;;;;;;;;;;5051806;28;20423;-56
2021/11/20 07:11:51;;;;;;;18.77;12.52;;;;;;;;;;5052171;28;20032;-57
2021/11/20 07:14:18;;;;;;;15.00;10.88;;;;;;;;;;5051570;28;20411;-57
2021/11/20 07:16:44;;;;;;;14.70;10.23;;;;;;;;;;5052197;28;20110;-57
2021/11/20 07:19:11;;;;;;;18.42;10.98;;;;;;;;;;5051585;28;20033;-57
2021/11/20 07:21:37;;;;;;;14.75;11.88;;;;;;;;;;5052147;28;20416;-57
2021/11/20 07:24:05;;;;;;;14.52;10.57;;;;;;;;;;5052014;28;20032;-58
2021/11/20 07:26:31;;;;;;;12.23;10.85;;;;;;;;;;5051853;28;20029;-57
2021/11/20 07:28:57;;;;;;;13.73;10.65;;;;;;;;;;5050866;28;20033;-58
2021/11/20 07:31:23;;;;;;;14.15;10.45;;;;;;;;;;5052040;28;20029;-57
2021/11/20 07:33:49;;;;;;;15.27;11.40;;;;;;;;;;5052083;28;20033;-57
2021/11/20 07:36:16;;;;;;;16.73;11.90;;;;;;;;;;5051860;28;20098;-57
2021/11/20 07:38:44;;;;;;;19.80;12.45;;;;;;;;;;5051238;28;20120;-57
2021/11/20 07:41:11;;;;;;;18.45;12.13;;;;;;;;;;5051617;28;20032;-58
2021/11/20 07:43:37;;;;;;;14.85;10.45;;;;;;;;;;5055118;28;20041;-56
2021/11/20 07:46:04;;;;;;;14.50;11.27;;;;;;;;;;5055524;28;20025;-58
2021/11/20 07:48:30;;;;;;;18.75;11.40;;;;;;;;;;5054465;28;20123;-56
2021/11/20 07:50:57;;;;;;;18.65;12.35;;;;;;;;;;5055703;28;20021;-58
2021/11/20 07:53:24;;;;;;;17.52;11.32;;;;;;;;;;5055532;28;20117;-59
2021/11/20 07:55:50;;;;;;;15.30;10.82;;;;;;;;;;5054658;28;20403;-59
2021/11/20 07:58:17;;;;;;;15.55;10.95;;;;;;;;;;5054775;28;20037;-56
2021/11/20 08:00:44;;;;;;;16.23;11.00;;;;;;;;;;5054323;28;20497;-57
2021/11/20 08:03:10;;;;;;;14.95;10.52;;;;;;;;;;5055748;28;20344;-56
2021/11/20 08:05:37;;;;;;;18.00;10.98;;;;;;;;;;5055538;28;20031;-57
2021/11/20 08:08:03;;;;;;;17.58;12.68;;;;;;;;;;5054573;28;20029;-56
2021/11/20 08:10:30;;;;;;;18.30;12.27;;;;;;;;;;5055275;28;20040;-57
2021/11/20 08:12:56;;;;;;;17.63;11.90;;;;;;;;;;5055254;28;20021;-56
2021/11/20 08:15:23;;;;;;;17.00;11.90;;;;;;;;;;5055412;28;20033;-57
2021/11/20 08:17:49;;;;;;;18.98;14.25;;;;;;;;;;5055116;28;20044;-56
2021/11/20 08:20:16;;;;;;;16.85;12.40;;;;;;;;;;5054910;28;20036;-56
2021/11/20 08:22:43;;;;;;;15.95;11.50;;;;;;;;;;5055289;28;20037;-54
2021/11/20 08:25:11;;;;;;;16.38;11.52;;;;;;;;;;5054920;28;20107;-54
2021/11/20 08:27:37;;;;;;;17.30;11.88;;;;;;;;;;5054795;28;20429;-56
2021/11/20 08:30:05;;;;;;;14.55;11.35;;;;;;;;;;5054231;28;20029;-56
2021/11/20 08:32:30;;;;;;;23.48;12.90;;;;;;;;;;5055006;28;20451;-55
2021/11/20 08:34:58;;;;;;;17.73;12.35;;;;;;;;;;5055077;28;20067;-55
2021/11/20 08:37:25;;;;;;;16.55;12.10;;;;;;;;;;5054726;28;20429;-56
2021/11/20 08:39:53;;;;;;;20.35;12.45;;;;;;;;;;5053690;28;20379;-56
2021/11/20 08:42:19;;;;;;;20.55;13.13;;;;;;;;;;5054691;28;20466;-56
2021/11/20 08:44:45;;;;;;;18.52;12.82;;;;;;;;;;5054842;28;20058;-54
2021/11/20 08:47:11;;;;;;;21.08;13.32;;;;;;;;;;5054705;28;20122;-56
2021/11/20 08:49:37;;;;;;;23.23;11.45;;;;;;;;;;5054117;28;20025;-56
2021/11/20 08:52:03;;;;;;;18.13;13.32;;;;;;;;;;5054606;28;20025;-57
2021/11/20 08:54:29;;;;;;;17.45;12.48;;;;;;;;;;5053464;28;20029;-58
2021/11/20 08:56:57;;;;;;;18.95;11.77;;;;;;;;;;5054582;28;20437;-57
2021/11/20 08:59:24;;;;;;;18.73;10.93;;;;;;;;;;5053998;28;20498;-58
2021/11/20 09:01:52;;;;;;;21.25;13.55;;;;;;;;;;5054318;28;20429;-56
2021/11/20 09:04:21;;;;;;;17.95;11.48;;;;;;;;;;5054732;28;20033;-57
2021/11/20 09:06:57;;;;;;;19.25;13.20;;;;;;;;;;5054137;28;20025;-57
2021/11/20 09:09:31;;;;;;;17.58;12.57;;;;;;;;;;5053632;28;20079;-58
2021/11/20 09:12:00;;;;;;;14.07;9.73;;;;;;;;;;5054409;28;20068;-57
2021/11/20 09:14:50;;;;;;;16.00;10.52;;;;;;;;;;5054032;28;20021;-57
2021/11/20 09:17:17;;;;;;;15.63;10.55;;;;;;;;;;5045831;28;20120;-57
2021/11/20 09:19:43;;;;;;;15.02;9.57;;;;;;;;;;5053450;28;20032;-57
2021/11/20 09:22:10;;;;;;;14.55;9.50;;;;;;;;;;5053904;28;20041;-57
2021/11/20 09:24:38;;;;;;;14.10;9.68;;;;;;;;;;5054158;28;20039;-56
2021/11/20 09:27:04;;;;;;;18.40;10.88;;;;;;;;;;5053926;28;20028;-57
2021/11/20 09:29:32;;;;;;;15.07;9.25;;;;;;;;;;5053340;28;20028;-57
2021/11/20 09:31:58;;;;;;;14.88;9.70;;;;;;;;;;5053759;28;20111;-55
2021/11/20 09:34:24;;;;;;;14.68;10.05;;;;;;;;;;5053778;28;20183;-57
2021/11/20 09:36:52;;;;;;;12.82;8.35;;;;;;;;;;5053736;28;20021;-58
2021/11/20 09:39:20;;;;;;;14.10;9.68;;;;;;;;;;5052539;28;20032;-57
2021/11/20 09:41:54;;;;;;;15.75;8.60;;;;;;;;;;5052865;28;20040;-57
2021/11/20 09:44:21;;;;;;;16.05;9.85;;;;;;;;;;5053326;28;20040;-58
2021/11/20 09:46:49;;;;;;;13.77;9.45;;;;;;;;;;5053775;28;20087;-57
2021/11/20 09:49:18;;;;;;;10.93;7.45;;;;;;;;;;5053010;28;20064;-57
2021/11/20 09:51:46;;;;;;;13.38;8.88;;;;;;;;;;5053416;28;20029;-57
2021/11/20 09:54:23;;;;;;;11.32;7.30;;;;;;;;;;5053228;28;20538;-58
2021/11/20 09:56:52;;;;;;;10.10;7.63;;;;;;;;;;5053228;28;20028;-58
2021/11/20 09:59:38;;;;;;;10.27;6.65;;;;;;;;;;5052669;28;20481;-56
2021/11/20 10:02:07;;;;;;;11.10;6.68;;;;;;;;;;5045677;28;20045;-58
2021/11/20 10:04:53;;;;;;;10.50;6.97;;;;;;;;;;5052918;28;20029;-57
2021/11/20 10:07:25;;;;;;;8.20;6.30;;;;;;;;;;5052314;28;20087;-58
2021/11/20 10:09:53;;;;;;;9.88;6.00;;;;;;;;;;5052577;28;20070;-57
2021/11/20 10:12:22;;;;;;;13.40;6.88;;;;;;;;;;5052615;28;20119;-58
2021/11/20 10:14:55;;;;;;;7.20;4.82;;;;;;;;;;5053005;28;20052;-55
2021/11/20 10:17:21;;;;;;;9.02;5.57;;;;;;;;;;5052767;28;20024;-57
2021/11/20 10:19:54;;;;;;;11.18;5.25;;;;;;;;;;5052708;28;20455;-57
2021/11/20 10:22:32;;;;;;;9.82;5.28;;;;;;;;;;5053105;28;20036;-57
2021/11/20 10:25:16;;;;;;;8.48;5.43;;;;;;;;;;5052838;28;20032;-56
2021/11/20 10:27:55;;;;;;;7.10;4.93;;;;;;;;;;5052125;28;20052;-58
2021/11/20 10:30:24;;;;;;;4.85;3.28;;;;;;;;;;5052638;28;20032;-57
2021/11/20 10:32:53;;;;;;;7.05;3.47;;;;;;;;;;5052861;28;20021;-57
2021/11/20 10:35:19;;;;;;;4.65;2.90;;;;;;;;;;5052666;28;20067;-57
2021/11/20 10:37:54;;;;;;;6.30;3.80;;;;;;;;;;5068650;28;20383;-59
2021/11/20 10:40:26;;;;;;;6.47;3.80;;;;;;;;;;5067060;28;20059;-59
2021/11/20 10:42:54;;;;;;;6.07;3.90;;;;;;;;;;5055945;28;20091;-59
2021/11/20 10:45:33;;;;;;;5.43;3.95;;;;;;;;;;5049086;28;20075;-56
2021/11/20 10:48:02;;;;;;;7.47;3.97;;;;;;;;;;5046508;28;20215;-57
2021/11/20 10:50:28;;;;;;;7.22;4.20;;;;;;;;;;5056812;28;20109;-56
2021/11/20 10:53:03;;;;;;;5.88;3.50;;;;;;;;;;5056028;28;20391;-57
2021/11/20 10:55:46;;;;;;;6.57;3.88;;;;;;;;;;5064152;28;20115;-57
2021/11/20 10:58:30;;;;;;;6.20;3.55;;;;;;;;;;5048667;28;20475;-57
2021/11/20 11:01:07;;;;;;;5.70;3.33;;;;;;;;;;5057204;28;20100;-58
2021/11/20 11:03:44;;;;;;;6.75;4.10;;;;;;;;;;5055029;28;20490;-58
2021/11/20 11:06:10;;;;;;;6.30;3.58;;;;;;;;;;5065117;28;20044;-59
2021/11/20 11:08:38;;;;;;;7.72;4.38;;;;;;;;;;5061151;28;20021;-59
2021/11/20 11:11:20;;;;;;;6.88;5.35;;;;;;;;;;5054647;28;20427;-59
2021/11/20 11:13:56;;;;;;;5.80;3.55;;;;;;;;;;5056943;28;20052;-59
2021/11/20 11:16:34;;;;;;;5.97;4.22;;;;;;;;;;5055198;28;20419;-59
2021/11/20 11:19:03;;;;;;;8.38;5.20;;;;;;;;;;5067338;28;20104;-59
2021/11/20 11:21:38;;;;;;;5.25;4.00;;;;;;;;;;5068354;28;20044;-59
2021/11/20 11:24:34;;;;;;;7.40;4.72;;;;;;;;;;5054707;28;20463;-59
2021/11/20 11:27:02;;;;;;;7.72;5.63;;;;;;;;;;5051587;28;20045;-59
2021/11/20 11:29:39;;;;;;;5.65;4.25;;;;;;;;;;5066212;28;20107;-59
2021/11/20 11:32:05;;;;;;;5.35;4.47;;;;;;;;;;5067920;28;20032;-59
2021/11/20 11:34:34;;;;;;;7.57;5.20;;;;;;;;;;5066054;28;20028;-59
2021/11/20 11:37:09;;;;;;;8.18;4.50;;;;;;;;;;5059211;28;20037;-59
2021/11/20 11:39:48;;;;;;;8.73;5.60;;;;;;;;;;5064954;28;20029;-59
2021/11/20 11:42:14;;;;;;;10.82;6.00;;;;;;;;;;5048171;28;20029;-59
2021/11/20 11:44:59;;;;;;;11.70;5.57;;;;;;;;;;5050118;28;20032;-59
2021/11/20 11:47:28;;;;;;;6.15;5.03;;;;;;;;;;5045645;28;20056;-59
2021/11/20 11:50:13;;;;;;;8.43;4.20;;;;;;;;;;5046360;28;20419;-59
2021/11/20 11:52:39;;;;;;;5.93;4.38;;;;;;;;;;5054490;28;20154;-59
2021/11/20 11:55:20;;;;;;;12.10;4.97;;;;;;;;;;5041778;28;20212;-59
2021/11/20 11:58:05;;;;;;;9.15;6.22;;;;;;;;;;5040161;28;20108;-59
2021/11/20 12:00:31;;;;;;;8.38;5.53;;;;;;;;;;5043167;28;20093;-59
2021/11/20 12:02:59;;;;;;;7.68;5.57;;;;;;;;;;5039940;28;20025;-59
2021/11/20 12:05:33;;;;;;;8.98;5.43;;;;;;;;;;5048515;28;20032;-58
2021/11/20 12:08:18;;;;;;;9.63;6.60;;;;;;;;;;5038215;28;20026;-59
2021/11/20 12:10:57;;;;;;;8.27;5.50;;;;;;;;;;5046168;28;20029;-59
2021/11/20 12:13:29;;;;;;;9.20;5.53;;;;;;;;;;5048019;28;20029;-58
2021/11/20 12:16:13;;;;;;;10.73;7.07;;;;;;;;;;5039986;28;20029;-59
2021/11/20 12:18:40;;;;;;;8.32;5.70;;;;;;;;;;5033585;28;20033;-59
2021/11/20 12:21:19;;;;;;;9.40;5.78;;;;;;;;;;5047715;28;20052;-58
2021/11/20 12:23:50;;;;;;;10.60;6.85;;;;;;;;;;5053024;28;20037;-59
2021/11/20 12:26:25;;;;;;;13.30;7.80;;;;;;;;;;5040611;28;20040;-59
2021/11/20 12:28:51;;;;;;;8.70;6.22;;;;;;;;;;5045374;28;20075;-59
2021/11/20 12:31:36;;;;;;;9.80;5.95;;;;;;;;;;5047877;28;20025;-59
2021/11/20 12:34:14;;;;;;;7.80;6.32;;;;;;;;;;5046545;28;20113;-59
2021/11/20 12:36:53;;;;;;;13.27;6.78;;;;;;;;;;5054107;28;20066;-59
2021/11/20 12:39:35;;;;;;;8.55;5.68;;;;;;;;;;5045327;28;20028;-59
2021/11/20 12:42:11;;;;;;;9.32;7.20;;;;;;;;;;5034175;28;20080;-59
2021/11/20 12:44:56;;;;;;;11.55;7.82;;;;;;;;;;5045889;28;20340;-59
2021/11/20 12:47:35;;;;;;;10.68;6.15;;;;;;;;;;5051083;28;20040;-59
2021/11/20 12:50:07;;;;;;;10.57;6.00;;;;;;;;;;5062047;28;20050;-59
2021/11/20 12:52:33;;;;;;;7.63;5.45;;;;;;;;;;5053347;28;20035;-59
2021/11/20 12:55:18;;;;;;;9.63;5.88;;;;;;;;;;5045235;28;20083;-60
2021/11/20 12:57:46;;;;;;;16.77;7.30;;;;;;;;;;5048054;28;20056;-60
2021/11/20 13:00:14;;;;;;;10.88;6.57;;;;;;;;;;5041774;28;20043;-57
2021/11/20 13:02:49;;;;;;;8.45;6.25;;;;;;;;;;5050065;28;20033;-58
2021/11/20 13:05:25;;;;;;;7.97;6.72;;;;;;;;;;5050971;28;20036;-57
2021/11/20 13:07:53;;;;;;;17.27;6.30;;;;;;;;;;5051989;28;20033;-58
2021/11/20 13:10:19;;;;;;;9.57;6.40;;;;;;;;;;5051168;28;20082;-58
2021/11/20 13:12:51;;;;;;;8.55;6.30;;;;;;;;;;5053519;28;20025;-57
2021/11/20 13:15:23;;;;;;;8.18;7.05;;;;;;;;;;5053393;28;20029;-57
2021/11/20 13:17:49;;;;;;;8.90;6.32;;;;;;;;;;5052371;28;20060;-58
2021/11/20 13:20:24;;;;;;;10.15;6.35;;;;;;;;;;5043695;28;20065;-58
2021/11/20 13:23:01;;;;;;;9.95;6.57;;;;;;;;;;5033189;28;20471;-58
2021/11/20 13:25:28;;;;;;;9.00;7.18;;;;;;;;;;5033448;28;20033;-59
2021/11/20 13:27:54;;;;;;;14.10;7.82;;;;;;;;;;5032664;28;20523;-59
2021/11/20 13:30:22;;;;;;;9.20;7.60;;;;;;;;;;5033201;28;20026;-58
2021/11/20 13:32:48;;;;;;;10.65;6.80;;;;;;;;;;5032980;28;20229;-59
2021/11/20 13:35:14;;;;;;;10.90;7.88;;;;;;;;;;5032955;28;20087;-59
2021/11/20 13:37:40;;;;;;;9.15;7.20;;;;;;;;;;5033392;28;20128;-59
2021/11/20 13:40:07;;;;;;;9.70;7.10;;;;;;;;;;5032318;28;20064;-58
2021/11/20 13:42:34;;;;;;;8.10;6.47;;;;;;;;;;5032819;28;20022;-59
2021/11/20 13:45:00;;;;;;;10.30;7.63;;;;;;;;;;5032895;28;20030;-59
2021/11/20 13:47:26;;;;;;;10.80;8.18;;;;;;;;;;5032642;28;20477;-58
2021/11/20 13:49:56;;;;;;;11.68;7.38;;;;;;;;;;5031823;28;20120;-59
2021/11/20 13:52:22;;;;;;;9.75;8.05;;;;;;;;;;5033476;28;20099;-59
2021/11/20 13:54:58;;;;;;;9.60;7.47;;;;;;;;;;5032648;28;20511;-59
2021/11/20 13:57:30;;;;;;;10.55;7.20;;;;;;;;;;5032546;28;20498;-59
2021/11/20 14:00:09;;;;;;;9.45;6.88;;;;;;;;;;5032035;28;20052;-59
2021/11/20 14:02:35;;;;;;;13.43;7.32;;;;;;;;;;5034010;28;20336;-59
2021/11/20 14:05:04;;;;;;;10.13;7.75;;;;;;;;;;5052465;28;20036;-58
2021/11/20 14:07:34;;;;;;;10.82;7.75;;;;;;;;;;5051328;28;20537;-58
2021/11/20 14:10:02;;;;;;;11.70;7.47;;;;;;;;;;5051728;28;20029;-59
2021/11/20 14:13:00;;;;;;;10.20;7.88;;;;;;;;;;5052080;28;20033;-59
2021/11/20 14:15:26;;;;;;;10.07;5.88;;;;;;;;;;5052351;28;20013;-58
2021/11/20 14:18:00;;;;;;;6.43;5.70;;;;;;;;;;5051657;28;20040;-58
2021/11/20 14:20:26;;;;;;;7.95;6.50;;;;;;;;;;5046104;28;20044;-55
2021/11/20 14:22:52;;;;;;;10.30;6.82;;;;;;;;;;5032290;28;20200;-58
2021/11/20 14:25:19;;;;;;;9.50;7.18;;;;;;;;;;5032211;28;20029;-58
2021/11/20 14:27:55;;;;;;;9.23;7.18;;;;;;;;;;5031749;28;20025;-56
2021/11/20 14:30:21;;;;;;;7.68;5.65;;;;;;;;;;5032132;28;20198;-56
2021/11/20 14:32:47;;;;;;;8.30;6.82;;;;;;;;;;5032376;28;20102;-58
2021/11/20 14:35:13;;;;;;;8.18;6.00;;;;;;;;;;5038769;28;20057;-58
2021/11/20 14:37:39;;;;;;;8.02;5.88;;;;;;;;;;5051878;28;20072;-55
2021/11/20 14:40:08;;;;;;;13.75;7.25;;;;;;;;;;5051183;28;20111;-58